Time;durP1;ratioP1;P1;durP2;ratioP2;P2;SDS_P1;SDS_P2;PMS_P1;PMS_P2;Temp;Humidity;BMP_temperature;BMP_pressure;BME280_temperature;BME280_humidity;BME280_pressure;Samples;Min_cycle;Max_cycle;Signal;HPM_P1;HPM_P2
2023/07/18 00:01:20;;;;;;;14.68;7.75;;;26.30;99.90;;;;;;4973738;28;20576;-76
2023/07/18 00:03:46;;;;;;;16.77;8.95;;;;;;;;;;4974113;28;20031;-73
2023/07/18 00:06:12;;;;;;;15.40;8.40;;;26.10;99.90;;;;;;4981757;28;20057;-72
2023/07/18 00:08:40;;;;;;;16.30;8.80;;;26.00;99.90;;;;;;4973323;28;20074;-73
2023/07/18 00:11:08;;;;;;;15.43;8.40;;;26.00;99.90;;;;;;4973729;28;20039;-76
2023/07/18 00:13:33;;;;;;;16.23;8.40;;;26.00;99.90;;;;;;4974005;28;20023;-73
2023/07/18 00:15:59;;;;;;;13.07;7.88;;;26.10;99.90;;;;;;4986323;28;20506;-76
2023/07/18 00:18:25;;;;;;;17.98;8.38;;;26.10;99.90;;;;;;4973270;28;20025;-77
2023/07/18 00:20:51;;;;;;;15.43;8.30;;;26.20;99.90;;;;;;4989707;28;20041;-76
2023/07/18 00:23:16;;;;;;;12.77;7.88;;;26.20;99.90;;;;;;4992136;28;20023;-77
2023/07/18 00:25:42;;;;;;;15.18;7.82;;;26.10;99.90;;;;;;4991732;28;20026;-72
2023/07/18 00:28:09;;;;;;;12.48;8.40;;;26.10;99.90;;;;;;4992002;28;20014;-73
2023/07/18 00:30:35;;;;;;;13.82;8.35;;;;;;;;;;4992429;28;20404;-73
2023/07/18 00:33:01;;;;;;;16.52;8.38;;;;;;;;;;4992011;28;20038;-72
2023/07/18 00:35:27;;;;;;;16.23;8.00;;;;;;;;;;4973155;28;20031;-72
2023/07/18 00:37:53;;;;;;;14.02;7.63;;;25.90;99.90;;;;;;4973234;28;20019;-77
2023/07/18 00:40:19;;;;;;;15.93;8.02;;;25.90;99.90;;;;;;4972151;28;20492;-77
2023/07/18 00:42:47;;;;;;;22.00;8.68;;;25.90;99.90;;;;;;4971821;28;20030;-72
2023/07/18 00:45:14;;;;;;;15.35;8.13;;;;;;;;;;4956402;28;20031;-77
2023/07/18 00:47:44;;;;;;;13.35;7.90;;;;;;;;;;4992111;28;20620;-73
2023/07/18 00:50:11;;;;;;;13.73;8.43;;;;;;;;;;4985287;28;20428;-75
2023/07/18 00:52:43;;;;;;;14.40;8.05;;;;;;;;;;4971136;28;20027;-72
2023/07/18 00:55:11;;;;;;;15.65;8.25;;;25.50;99.90;;;;;;4969677;28;20031;-73
2023/07/18 00:57:41;;;;;;;14.88;8.80;;;25.70;99.90;;;;;;4956468;28;20023;-76
2023/07/18 01:00:11;;;;;;;15.43;9.18;;;25.70;99.90;;;;;;4973014;28;20025;-76
2023/07/18 01:02:38;;;;;;;17.30;9.00;;;;;;;;;;4972889;28;20023;-77
2023/07/18 01:05:06;;;;;;;14.75;9.25;;;;;;;;;;4950317;28;20034;-72
2023/07/18 01:07:34;;;;;;;16.15;8.73;;;;;;;;;;4972539;28;20481;-77
2023/07/18 01:10:14;;;;;;;17.55;8.50;;;;;;;;;;4954789;28;20035;-76
2023/07/18 01:12:40;;;;;;;14.20;8.32;;;;;;;;;;4972586;28;20065;-73
2023/07/18 01:15:06;;;;;;;13.68;8.45;;;;;;;;;;4972606;28;20018;-72
2023/07/18 01:17:34;;;;;;;15.55;8.55;;;;;;;;;;4972461;28;20507;-76
2023/07/18 01:20:01;;;;;;;13.00;7.45;;;;;;;;;;4973700;28;20062;-76
2023/07/18 01:22:27;;;;;;;12.52;8.65;;;;;;;;;;4972165;28;20049;-72
2023/07/18 01:24:53;;;;;;;13.98;8.30;;;;;;;;;;4973979;28;20027;-73
2023/07/18 01:27:19;;;;;;;13.35;8.48;;;;;;;;;;4973520;28;20482;-77
2023/07/18 01:29:46;;;;;;;16.75;9.25;;;;;;;;;;4974085;28;20445;-75
2023/07/18 01:32:12;;;;;;;13.05;8.18;;;;;;;;;;4973477;28;20031;-75
2023/07/18 01:34:38;;;;;;;18.88;8.45;;;;;;;;;;4956449;28;20396;-77
2023/07/18 01:37:04;;;;;;;15.55;9.48;;;25.30;99.90;;;;;;4971759;28;20100;-74
2023/07/18 01:39:30;;;;;;;16.80;8.88;;;25.30;99.90;;;;;;4973487;28;20143;-73
2023/07/18 01:41:55;;;;;;;16.00;9.25;;;25.20;99.90;;;;;;4973367;28;20022;-74
2023/07/18 01:44:21;;;;;;;14.57;8.65;;;25.30;99.90;;;;;;4972578;28;20038;-73
2023/07/18 01:46:48;;;;;;;12.75;9.00;;;25.30;99.90;;;;;;4972837;28;20029;-74
2023/07/18 01:49:13;;;;;;;12.77;8.35;;;25.30;99.90;;;;;;4973234;28;20035;-76
2023/07/18 01:51:39;;;;;;;14.05;8.20;;;25.20;99.90;;;;;;4973189;28;20037;-73
2023/07/18 01:54:06;;;;;;;16.10;9.32;;;25.20;99.90;;;;;;4972104;28;20516;-76
2023/07/18 01:56:32;;;;;;;14.35;9.25;;;25.20;99.90;;;;;;4972076;28;20113;-76
2023/07/18 01:58:58;;;;;;;17.60;8.85;;;25.20;99.90;;;;;;4971737;28;20118;-73
2023/07/18 02:01:24;;;;;;;17.02;9.18;;;25.10;99.90;;;;;;4955284;28;20030;-77
2023/07/18 02:03:51;;;;;;;18.60;9.43;;;25.10;99.90;;;;;;4972741;28;20038;-74
2023/07/18 02:06:17;;;;;;;19.10;9.70;;;25.00;99.90;;;;;;4971758;28;20392;-78
2023/07/18 02:08:43;;;;;;;18.08;10.13;;;25.10;99.90;;;;;;4972804;28;20053;-72
2023/07/18 02:11:09;;;;;;;15.90;10.07;;;25.10;99.90;;;;;;4955630;28;20488;-77
2023/07/18 02:13:34;;;;;;;14.70;9.18;;;25.10;99.90;;;;;;4971644;28;20122;-78
2023/07/18 02:16:00;;;;;;;14.13;8.77;;;25.00;99.90;;;;;;4972921;28;20027;-76
2023/07/18 02:18:27;;;;;;;15.48;10.18;;;25.00;99.90;;;;;;4973262;28;20469;-78
2023/07/18 02:20:53;;;;;;;13.50;9.38;;;24.90;99.90;;;;;;4973050;28;20027;-77
2023/07/18 02:23:19;;;;;;;15.40;9.30;;;24.90;99.90;;;;;;4973088;28;20134;-77
2023/07/18 02:25:46;;;;;;;16.20;9.80;;;24.80;99.90;;;;;;4972873;28;20027;-76
2023/07/18 02:28:12;;;;;;;13.77;9.13;;;24.80;99.90;;;;;;4955803;28;20023;-76
2023/07/18 02:30:38;;;;;;;16.33;10.13;;;24.70;99.90;;;;;;4955336;28;20122;-75
2023/07/18 02:33:07;;;;;;;14.25;9.65;;;24.60;99.90;;;;;;4973258;28;20539;-77
2023/07/18 02:35:32;;;;;;;16.80;10.15;;;24.70;99.90;;;;;;4972918;28;20483;-76
2023/07/18 02:37:58;;;;;;;16.75;9.80;;;24.60;99.90;;;;;;4955790;28;20023;-77
2023/07/18 02:40:24;;;;;;;15.40;10.60;;;24.60;99.90;;;;;;4955347;28;20404;-77
2023/07/18 02:42:50;;;;;;;18.60;10.38;;;24.60;99.90;;;;;;4971217;28;20030;-77
2023/07/18 02:45:16;;;;;;;15.63;10.52;;;24.60;99.90;;;;;;4963496;28;20034;-76
2023/07/18 02:47:42;;;;;;;18.10;10.52;;;24.50;99.90;;;;;;4992186;28;20480;-76
2023/07/18 02:50:08;;;;;;;16.42;10.55;;;24.50;99.90;;;;;;4975272;28;20050;-77
2023/07/18 02:52:34;;;;;;;18.20;10.02;;;24.40;99.90;;;;;;4974424;28;20038;-73
2023/07/18 02:55:00;;;;;;;18.70;10.40;;;24.40;99.90;;;;;;4972217;28;20026;-77
2023/07/18 02:57:26;;;;;;;16.92;10.18;;;24.40;99.90;;;;;;4967404;28;20023;-77
2023/07/18 02:59:52;;;;;;;16.70;10.43;;;24.40;99.90;;;;;;4971671;28;20066;-73
2023/07/18 03:02:18;;;;;;;16.33;11.30;;;24.40;99.90;;;;;;4971287;28;20404;-77
2023/07/18 03:04:47;;;;;;;17.77;10.27;;;24.40;99.90;;;;;;4973682;28;20023;-74
2023/07/18 03:07:13;;;;;;;15.20;10.73;;;24.30;99.90;;;;;;4976554;28;20432;-76
2023/07/18 03:09:39;;;;;;;21.13;10.10;;;24.40;99.90;;;;;;4975944;28;20500;-73
2023/07/18 03:12:07;;;;;;;14.90;9.98;;;24.30;99.90;;;;;;4976265;28;20098;-77
2023/07/18 03:14:33;;;;;;;13.98;9.93;;;24.30;99.90;;;;;;4974772;28;20065;-77
2023/07/18 03:16:59;;;;;;;13.93;9.23;;;24.30;99.90;;;;;;4976355;28;20026;-77
2023/07/18 03:19:26;;;;;;;16.63;10.13;;;24.30;99.90;;;;;;4974786;28;20110;-73
2023/07/18 03:21:52;;;;;;;15.48;10.18;;;24.30;99.90;;;;;;4976288;28;20031;-73
2023/07/18 03:24:18;;;;;;;17.60;10.75;;;24.30;99.90;;;;;;4975758;28;20472;-77
2023/07/18 03:26:44;;;;;;;15.02;10.18;;;24.30;99.90;;;;;;4958653;28;20037;-73
2023/07/18 03:29:10;;;;;;;17.15;10.40;;;24.30;99.90;;;;;;4975716;28;20058;-74
2023/07/18 03:31:36;;;;;;;18.35;10.63;;;24.30;99.90;;;;;;4975699;28;20038;-74
2023/07/18 03:34:04;;;;;;;16.67;9.40;;;24.40;99.90;;;;;;4974791;28;20445;-76
2023/07/18 03:36:30;;;;;;;16.50;10.13;;;24.50;99.90;;;;;;4975535;28;20046;-76
2023/07/18 03:38:56;;;;;;;16.08;10.27;;;24.50;99.90;;;;;;4976089;28;20031;-77
2023/07/18 03:41:25;;;;;;;17.33;10.15;;;24.50;99.90;;;;;;4975305;28;20409;-77
2023/07/18 03:43:50;;;;;;;18.52;10.70;;;24.60;99.90;;;;;;4975670;28;20416;-75
2023/07/18 03:46:16;;;;;;;16.30;10.15;;;24.70;99.90;;;;;;4975577;28;20082;-77
2023/07/18 03:48:42;;;;;;;18.65;10.82;;;24.80;99.90;;;;;;4975956;28;20136;-76
2023/07/18 03:51:08;;;;;;;13.50;9.23;;;25.10;99.90;;;;;;4975308;28;20170;-77
2023/07/18 03:53:34;;;;;;;16.15;10.25;;;25.60;99.90;;;;;;4975480;28;20386;-74
2023/07/18 03:56:06;;;;;;;14.93;9.95;;;26.30;99.90;;;;;;4975475;28;20047;-76
2023/07/18 03:58:33;;;;;;;16.65;9.05;;;26.90;99.90;;;;;;4975309;28;20021;-76
2023/07/18 04:00:58;;;;;;;23.27;8.85;;;27.40;99.90;;;;;;4975560;28;20114;-78
2023/07/18 04:03:27;;;;;;;14.43;8.85;;;28.00;99.90;;;;;;4975401;28;20035;-78
2023/07/18 04:05:53;;;;;;;16.33;9.13;;;28.50;99.90;;;;;;4975205;28;20033;-73
2023/07/18 04:08:19;;;;;;;13.75;9.88;;;;;;;;;;4974250;28;20046;-76
2023/07/18 04:10:45;;;;;;;16.95;9.20;;;29.60;99.90;;;;;;4975270;28;20074;-77
2023/07/18 04:13:11;;;;;;;14.90;8.43;;;29.60;99.90;;;;;;4975328;28;20409;-74
2023/07/18 04:15:36;;;;;;;16.48;8.40;;;29.90;99.90;;;;;;4975137;28;20027;-74
2023/07/18 04:18:02;;;;;;;19.42;8.55;;;30.00;99.90;;;;;;4975184;28;20476;-77
2023/07/18 04:20:28;;;;;;;14.07;8.93;;;30.50;99.90;;;;;;4975059;28;20400;-78
2023/07/18 04:22:54;;;;;;;18.42;9.30;;;30.40;99.90;;;;;;4974892;28;20106;-73
2023/07/18 04:25:20;;;;;;;20.80;8.55;;;30.40;99.90;;;;;;4974872;28;20102;-74
2023/07/18 04:27:47;;;;;;;18.60;8.55;;;30.80;99.00;;;;;;4974813;28;20026;-74
2023/07/18 04:30:13;;;;;;;19.02;8.82;;;31.10;98.20;;;;;;4974844;28;20081;-77
2023/07/18 04:32:42;;;;;;;18.80;8.30;;;31.00;98.30;;;;;;4974944;28;20110;-77
2023/07/18 04:35:09;;;;;;;21.85;9.02;;;31.20;98.00;;;;;;4974847;28;20041;-77
2023/07/18 04:37:36;;;;;;;21.90;8.85;;;31.80;96.60;;;;;;4974951;28;20023;-74
2023/07/18 04:40:05;;;;;;;18.00;8.38;;;32.00;96.20;;;;;;4974621;28;20407;-76
2023/07/18 04:42:33;;;;;;;14.18;7.80;;;32.90;95.30;;;;;;4957219;28;20033;-76
2023/07/18 04:44:59;;;;;;;25.35;9.02;;;;;;;;;;4974728;28;20123;-79
2023/07/18 04:47:25;;;;;;;20.65;8.38;;;32.90;95.10;;;;;;4974605;28;20014;-79
2023/07/18 04:49:51;;;;;;;15.48;7.97;;;33.00;95.80;;;;;;4974398;28;20120;-74
2023/07/18 04:52:17;;;;;;;16.15;8.13;;;33.10;95.00;;;;;;4974438;28;20019;-74
2023/07/18 04:54:43;;;;;;;20.42;8.00;;;33.30;95.00;;;;;;4974390;28;20499;-78
2023/07/18 04:57:09;;;;;;;15.52;8.55;;;33.60;94.30;;;;;;4974176;28;20098;-78
2023/07/18 04:59:34;;;;;;;11.77;7.53;;;33.80;94.20;;;;;;4974273;28;20077;-78
2023/07/18 05:02:01;;;;;;;12.35;7.72;;;;;;;;;;4974153;28;20022;-77
2023/07/18 05:04:26;;;;;;;12.45;7.50;;;34.10;99.90;;;;;;4974336;28;20030;-78
2023/07/18 05:06:52;;;;;;;13.57;7.68;;;33.10;93.60;;;;;;4972397;28;20465;-77
2023/07/18 05:09:18;;;;;;;11.90;8.02;;;32.80;93.80;;;;;;4970386;28;20122;-75
2023/07/18 05:11:44;;;;;;;22.45;8.57;;;32.30;94.70;;;;;;4966486;28;20365;-78
2023/07/18 05:14:10;;;;;;;19.38;9.13;;;32.00;94.80;;;;;;4973802;28;20030;-78
2023/07/18 05:16:35;;;;;;;14.25;8.55;;;31.40;94.90;;;;;;4974140;28;20099;-78
2023/07/18 05:19:01;;;;;;;15.45;8.38;;;31.40;95.00;;;;;;4973716;28;20034;-73
2023/07/18 05:21:27;;;;;;;14.43;8.30;;;31.20;95.40;;;;;;4977455;28;20110;-74
2023/07/18 05:23:53;;;;;;;14.93;8.75;;;31.00;95.20;;;;;;4973790;28;20455;-75
2023/07/18 05:26:18;;;;;;;30.10;9.48;;;30.80;95.40;;;;;;4973232;28;20022;-74
2023/07/18 05:28:45;;;;;;;25.15;9.02;;;;;;;;;;4979971;28;20448;-73
2023/07/18 05:31:11;;;;;;;21.63;9.25;;;;;;;;;;4987576;28;20038;-74
2023/07/18 05:33:37;;;;;;;25.08;9.27;;;30.60;97.70;;;;;;4973683;28;20019;-73
2023/07/18 05:36:03;;;;;;;19.55;8.95;;;30.60;97.80;;;;;;4973602;28;20057;-77
2023/07/18 05:38:29;;;;;;;15.07;9.38;;;;;;;;;;4973734;28;20019;-78
2023/07/18 05:40:55;;;;;;;15.55;9.13;;;;;;;;;;4973328;28;20030;-76
2023/07/18 05:43:21;;;;;;;19.30;9.80;;;30.10;99.70;;;;;;4973625;28;20512;-77
2023/07/18 05:45:47;;;;;;;13.45;8.50;;;30.00;99.90;;;;;;4973434;28;20066;-74
2023/07/18 05:48:12;;;;;;;13.07;7.82;;;30.30;99.90;;;;;;4973536;28;20114;-77
2023/07/18 05:50:38;;;;;;;19.60;8.65;;;30.30;99.90;;;;;;4973225;28;20035;-77
2023/07/18 05:53:04;;;;;;;16.05;8.65;;;30.30;99.90;;;;;;4973555;28;20086;-77
2023/07/18 05:55:30;;;;;;;15.88;8.73;;;30.40;99.90;;;;;;4973328;28;20022;-77
2023/07/18 05:57:55;;;;;;;17.73;8.98;;;30.10;99.90;;;;;;4973140;28;20023;-77
2023/07/18 06:00:21;;;;;;;16.48;9.27;;;30.20;99.90;;;;;;4973233;28;20042;-75
2023/07/18 06:02:50;;;;;;;23.55;9.50;;;30.20;99.90;;;;;;4973424;28;20034;-75
2023/07/18 06:05:16;;;;;;;23.90;10.07;;;30.40;99.90;;;;;;4973576;28;20027;-73
2023/07/18 06:07:42;;;;;;;20.50;9.45;;;30.50;99.90;;;;;;4972871;28;20117;-77
2023/07/18 06:10:08;;;;;;;22.33;9.63;;;30.70;99.90;;;;;;4973350;28;20099;-77
2023/07/18 06:12:35;;;;;;;25.40;9.32;;;30.70;99.90;;;;;;4972747;28;20106;-77
2023/07/18 06:15:01;;;;;;;14.02;9.23;;;30.90;99.90;;;;;;4973085;28;20554;-77
2023/07/18 06:17:27;;;;;;;13.80;9.25;;;31.10;99.90;;;;;;4972835;28;20042;-78
2023/07/18 06:19:53;;;;;;;24.52;16.52;;;31.50;98.50;;;;;;4973167;28;20033;-77
2023/07/18 06:22:19;;;;;;;18.25;12.30;;;;;;;;;;4972982;28;20451;-77
2023/07/18 06:24:47;;;;;;;15.15;10.02;;;31.60;98.00;;;;;;4965596;28;20109;-73
2023/07/18 06:27:13;;;;;;;16.17;9.40;;;31.60;97.60;;;;;;4973018;28;20022;-77
2023/07/18 06:29:38;;;;;;;15.38;8.77;;;31.90;97.20;;;;;;4972905;28;20384;-77
2023/07/18 06:32:05;;;;;;;15.90;8.20;;;32.20;96.80;;;;;;4973142;28;20055;-77
2023/07/18 06:34:33;;;;;;;14.48;8.65;;;32.30;96.90;;;;;;4973064;28;20026;-73
2023/07/18 06:37:01;;;;;;;20.80;8.98;;;32.30;95.40;;;;;;4973206;28;20467;-78
2023/07/18 06:39:29;;;;;;;19.65;9.75;;;32.70;95.70;;;;;;4975171;28;20035;-77
2023/07/18 06:41:56;;;;;;;15.95;8.48;;;33.10;95.30;;;;;;4976820;28;20043;-76
2023/07/18 06:44:23;;;;;;;14.48;8.60;;;33.20;94.40;;;;;;4959124;28;20031;-74
2023/07/18 06:46:50;;;;;;;13.70;8.95;;;;;;;;;;4990359;28;20097;-72
2023/07/18 06:49:18;;;;;;;14.40;8.25;;;33.30;94.30;;;;;;4996358;28;20380;-77
2023/07/18 06:51:44;;;;;;;15.00;8.30;;;33.50;96.40;;;;;;4995774;28;20551;-77
2023/07/18 06:54:10;;;;;;;16.42;9.15;;;33.40;94.30;;;;;;4989345;28;20039;-77
2023/07/18 06:56:38;;;;;;;11.50;8.32;;;33.60;94.50;;;;;;4976217;28;20476;-73
2023/07/18 06:59:04;;;;;;;13.98;8.70;;;33.80;93.40;;;;;;4976628;28;20034;-77
2023/07/18 07:01:32;;;;;;;15.40;8.88;;;33.80;94.10;;;;;;4976568;28;20097;-78
2023/07/18 07:03:58;;;;;;;17.17;9.40;;;33.80;94.20;;;;;;4976690;28;20034;-77
2023/07/18 07:06:24;;;;;;;14.57;9.27;;;33.70;95.60;;;;;;4976140;28;20022;-77
2023/07/18 07:08:51;;;;;;;11.23;8.60;;;33.90;95.40;;;;;;4976568;28;20437;-77
2023/07/18 07:11:16;;;;;;;14.18;8.68;;;33.80;94.90;;;;;;4976386;28;20043;-77
2023/07/18 07:13:43;;;;;;;13.48;7.60;;;34.00;95.10;;;;;;4976607;28;20027;-77
2023/07/18 07:16:08;;;;;;;14.82;8.05;;;34.10;95.90;;;;;;4976417;28;20018;-78
2023/07/18 07:18:34;;;;;;;13.30;8.25;;;34.40;94.60;;;;;;4976270;28;20392;-77
2023/07/18 07:21:00;;;;;;;15.95;8.80;;;34.30;93.80;;;;;;4976395;28;20019;-76
2023/07/18 07:23:28;;;;;;;16.27;8.60;;;34.30;94.30;;;;;;4976077;28;20027;-74
2023/07/18 07:25:54;;;;;;;16.95;7.80;;;34.60;94.60;;;;;;4976202;28;20034;-75
2023/07/18 07:28:22;;;;;;;15.05;7.18;;;34.70;93.40;;;;;;4975877;28;20027;-77
2023/07/18 07:30:49;;;;;;;10.00;6.18;;;34.70;92.90;;;;;;4976072;28;20038;-78
2023/07/18 07:33:14;;;;;;;7.40;4.63;;;34.50;92.10;;;;;;4976342;28;20027;-77
2023/07/18 07:35:40;;;;;;;9.18;5.35;;;33.60;89.60;;;;;;4975695;28;20400;-77
2023/07/18 07:38:06;;;;;;;8.48;5.45;;;34.10;91.70;;;;;;4976008;28;20090;-77
2023/07/18 07:40:32;;;;;;;7.97;4.82;;;34.40;91.40;;;;;;4978060;28;20082;-73
2023/07/18 07:42:58;;;;;;;8.38;4.53;;;34.70;91.00;;;;;;4984369;28;20433;-77
2023/07/18 07:45:24;;;;;;;7.30;5.22;;;34.90;91.00;;;;;;4975597;28;20023;-77
2023/07/18 07:47:50;;;;;;;7.25;5.20;;;34.90;91.00;;;;;;4976136;28;20035;-77
2023/07/18 07:50:15;;;;;;;8.60;5.15;;;34.90;90.10;;;;;;4975216;28;20031;-76
2023/07/18 07:52:42;;;;;;;7.55;4.13;;;34.90;90.00;;;;;;4975735;28;20078;-75
2023/07/18 07:55:11;;;;;;;9.43;5.00;;;34.90;90.10;;;;;;4975360;28;20034;-77
2023/07/18 07:57:37;;;;;;;7.47;5.20;;;34.30;87.00;;;;;;4975678;28;20031;-77
2023/07/18 08:00:03;;;;;;;8.55;5.05;;;34.50;89.10;;;;;;4975225;28;20022;-77
2023/07/18 08:02:32;;;;;;;7.65;5.35;;;34.60;87.50;;;;;;4975259;28;20039;-77
2023/07/18 08:04:58;;;;;;;9.13;5.45;;;34.50;90.00;;;;;;4975479;28;20050;-77
2023/07/18 08:07:24;;;;;;;13.38;5.85;;;34.00;90.10;;;;;;4975166;28;20079;-77
2023/07/18 08:09:50;;;;;;;8.15;5.53;;;34.00;90.00;;;;;;4975327;28;20118;-77
2023/07/18 08:12:16;;;;;;;9.38;5.97;;;34.00;90.40;;;;;;4975015;28;20035;-76
2023/07/18 08:14:42;;;;;;;10.98;6.10;;;33.90;90.60;;;;;;4975558;28;20075;-74
2023/07/18 08:17:08;;;;;;;11.77;6.10;;;33.90;90.60;;;;;;4975182;28;20465;-77
2023/07/18 08:19:36;;;;;;;9.35;6.10;;;34.00;90.10;;;;;;4975033;28;20027;-77
2023/07/18 08:22:03;;;;;;;9.00;5.68;;;33.90;90.90;;;;;;4974979;28;20121;-74
2023/07/18 08:24:29;;;;;;;12.68;6.35;;;34.10;90.50;;;;;;4974908;28;20477;-75
2023/07/18 08:26:56;;;;;;;8.45;6.28;;;33.50;90.10;;;;;;4975009;28;20031;-76
2023/07/18 08:29:31;;;;;;;9.85;5.93;;;33.80;90.80;;;;;;4974555;28;20026;-72
2023/07/18 08:31:58;;;;;;;9.52;5.90;;;33.80;90.50;;;;;;4974907;28;20433;-77
2023/07/18 08:34:24;;;;;;;8.95;6.05;;;34.00;91.00;;;;;;4974768;28;20484;-73
2023/07/18 08:36:50;;;;;;;10.65;6.50;;;33.80;90.40;;;;;;4974937;28;20049;-77
2023/07/18 08:39:16;;;;;;;17.00;6.70;;;34.00;90.90;;;;;;4975341;28;20094;-77
2023/07/18 08:41:44;;;;;;;13.55;6.28;;;34.30;90.90;;;;;;4974535;28;20106;-77
2023/07/18 08:44:13;;;;;;;10.85;6.57;;;34.30;91.30;;;;;;4974514;28;20066;-73
2023/07/18 08:46:45;;;;;;;9.10;5.90;;;34.70;91.60;;;;;;4974470;28;20031;-78
2023/07/18 08:49:16;;;;;;;11.13;6.88;;;34.60;91.70;;;;;;4975022;28;20448;-73
2023/07/18 08:51:43;;;;;;;10.30;6.60;;;34.90;90.50;;;;;;4974211;28;20451;-73
2023/07/18 08:54:10;;;;;;;9.55;5.80;;;34.90;91.70;;;;;;4974809;28;20019;-77
2023/07/18 08:56:40;;;;;;;10.02;6.63;;;34.90;90.90;;;;;;4974411;28;20484;-77
2023/07/18 08:59:06;;;;;;;10.43;5.85;;;34.60;90.70;;;;;;4974398;28;20457;-74
2023/07/18 09:01:32;;;;;;;13.80;5.97;;;34.70;90.40;;;;;;4956213;28;20447;-77
2023/07/18 09:03:58;;;;;;;13.13;6.55;;;34.90;90.00;;;;;;4974192;28;20061;-73
2023/07/18 09:06:24;;;;;;;9.02;6.20;;;34.80;90.20;;;;;;4974466;28;20046;-73
2023/07/18 09:08:50;;;;;;;7.93;5.70;;;34.70;90.20;;;;;;4974106;28;20055;-77
2023/07/18 09:11:20;;;;;;;10.02;6.45;;;34.50;90.70;;;;;;4973816;28;20041;-73
2023/07/18 09:13:47;;;;;;;20.75;6.72;;;34.40;90.90;;;;;;4973958;28;20035;-78
2023/07/18 09:16:12;;;;;;;12.48;6.60;;;34.60;91.50;;;;;;4974033;28;20018;-77
2023/07/18 09:18:42;;;;;;;8.55;6.20;;;34.90;90.20;;;;;;4973967;28;20038;-77
2023/07/18 09:21:11;;;;;;;9.70;6.13;;;35.20;90.10;;;;;;4974034;28;20060;-73
2023/07/18 09:23:41;;;;;;;10.48;6.05;;;35.30;90.00;;;;;;4974103;28;20046;-77
2023/07/18 09:26:13;;;;;;;9.85;6.35;;;35.10;88.60;;;;;;4974066;28;20026;-77
2023/07/18 09:28:41;;;;;;;12.60;5.93;;;35.10;91.00;;;;;;4973943;28;20118;-74
2023/07/18 09:31:26;;;;;;;10.15;5.40;;;35.10;90.10;;;;;;4973718;28;20047;-77
2023/07/18 09:33:53;;;;;;;11.55;5.95;;;35.40;90.50;;;;;;4973654;28;20484;-73
2023/07/18 09:36:21;;;;;;;9.88;6.53;;;;;;;;;;4973757;28;20473;-74
2023/07/18 09:38:48;;;;;;;9.65;6.43;;;35.70;90.10;;;;;;4973403;28;20037;-74
2023/07/18 09:41:16;;;;;;;11.57;5.78;;;34.70;88.40;;;;;;4973772;28;20031;-78
2023/07/18 09:43:43;;;;;;;9.93;6.20;;;33.90;88.60;;;;;;4973487;28;20035;-75
2023/07/18 09:46:14;;;;;;;7.72;5.63;;;34.40;87.40;;;;;;4973987;28;20078;-78
2023/07/18 09:48:41;;;;;;;11.38;6.03;;;34.60;89.60;;;;;;4973436;28;20026;-77
2023/07/18 09:51:20;;;;;;;7.82;5.50;;;34.50;88.00;;;;;;4973235;28;20397;-73
2023/07/18 09:53:47;;;;;;;10.77;6.30;;;35.00;96.10;;;;;;4973644;28;20038;-74
2023/07/18 09:56:17;;;;;;;8.82;5.55;;;35.10;89.60;;;;;;4973310;28;20030;-77
2023/07/18 09:58:45;;;;;;;9.50;5.43;;;35.30;88.00;;;;;;4973574;28;20536;-77
2023/07/18 10:01:13;;;;;;;8.60;5.63;;;35.10;88.30;;;;;;4973714;28;20026;-74
2023/07/18 10:03:40;;;;;;;8.88;5.40;;;34.90;88.50;;;;;;4973486;28;20058;-74
2023/07/18 10:06:09;;;;;;;6.93;4.68;;;35.20;90.00;;;;;;4973145;28;20086;-78
2023/07/18 10:08:40;;;;;;;7.28;4.65;;;35.10;85.90;;;;;;4972988;28;20097;-78
2023/07/18 10:11:08;;;;;;;7.93;4.90;;;34.30;86.40;;;;;;4973227;28;20106;-77
2023/07/18 10:14:05;;;;;;;8.75;5.68;;;;;;;;;;4972914;28;20018;-74
2023/07/18 10:16:35;;;;;;;7.57;5.35;;;34.50;99.90;;;;;;4972992;28;20019;-73
2023/07/18 10:19:18;;;;;;;6.00;4.68;;;34.30;90.60;;;;;;4973417;28;20492;-77
2023/07/18 10:21:49;;;;;;;8.20;4.78;;;34.50;88.50;;;;;;4973082;28;20035;-77
2023/07/18 10:24:24;;;;;;;15.93;5.30;;;34.80;88.00;;;;;;4973138;28;20469;-77
2023/07/18 10:26:57;;;;;;;8.02;4.80;;;35.20;94.90;;;;;;4973166;28;20496;-74
2023/07/18 10:29:23;;;;;;;9.98;5.22;;;35.20;87.50;;;;;;4960583;28;20114;-77
2023/07/18 10:31:49;;;;;;;7.80;5.03;;;34.90;86.90;;;;;;4973118;28;20182;-76
2023/07/18 10:34:16;;;;;;;11.57;5.10;;;34.50;88.10;;;;;;4973020;28;20026;-77
2023/07/18 10:37:06;;;;;;;10.15;5.00;;;34.70;86.60;;;;;;4972877;28;20033;-73
2023/07/18 10:39:40;;;;;;;8.00;5.00;;;34.50;87.40;;;;;;4973024;28;20034;-77
2023/07/18 10:42:07;;;;;;;8.90;4.65;;;34.60;85.20;;;;;;4972760;28;20059;-77
2023/07/18 10:44:36;;;;;;;6.97;4.45;;;34.70;92.20;;;;;;4978339;28;20026;-76
2023/07/18 10:47:12;;;;;;;7.28;4.70;;;34.80;93.50;;;;;;4992497;28;20431;-77
2023/07/18 10:49:38;;;;;;;7.43;4.35;;;34.70;92.20;;;;;;4991929;28;20026;-72
2023/07/18 10:52:04;;;;;;;6.72;4.38;;;34.50;87.40;;;;;;4992145;28;20380;-77
2023/07/18 10:54:30;;;;;;;13.52;5.03;;;34.50;86.20;;;;;;4973605;28;20030;-73
2023/07/18 10:56:56;;;;;;;6.40;4.32;;;34.30;86.00;;;;;;4972958;28;20026;-77
2023/07/18 10:59:22;;;;;;;5.93;3.50;;;34.50;86.70;;;;;;4972610;28;20023;-74
2023/07/18 11:01:48;;;;;;;6.75;3.90;;;34.10;85.00;;;;;;4972937;28;20106;-77
2023/07/18 11:04:14;;;;;;;7.38;3.90;;;34.50;85.80;;;;;;4972654;28;20461;-78
2023/07/18 11:06:50;;;;;;;6.03;3.83;;;34.30;85.60;;;;;;4972747;28;20049;-74
2023/07/18 11:09:16;;;;;;;7.85;3.63;;;34.50;87.00;;;;;;4960366;28;20401;-74
2023/07/18 11:11:42;;;;;;;7.28;3.58;;;34.50;85.60;;;;;;4972346;28;20043;-74
2023/07/18 11:14:07;;;;;;;5.45;3.13;;;34.60;84.20;;;;;;4960015;28;20093;-78
2023/07/18 11:16:33;;;;;;;6.20;3.60;;;34.50;83.40;;;;;;4972474;28;20034;-73
2023/07/18 11:18:59;;;;;;;5.88;3.83;;;34.30;85.00;;;;;;4972760;28;20026;-73
2023/07/18 11:21:26;;;;;;;7.15;4.13;;;34.40;85.00;;;;;;4972577;28;20034;-76
2023/07/18 11:23:53;;;;;;;5.93;3.90;;;34.40;86.90;;;;;;4972640;28;20023;-76
2023/07/18 11:26:19;;;;;;;6.38;3.63;;;34.50;84.30;;;;;;4975579;28;20026;-78
2023/07/18 11:28:57;;;;;;;5.22;3.80;;;34.50;85.30;;;;;;4976094;28;20031;-73
2023/07/18 11:31:27;;;;;;;5.80;3.88;;;34.20;83.90;;;;;;4975861;28;20034;-73
2023/07/18 11:33:58;;;;;;;8.77;3.83;;;34.30;84.50;;;;;;4975692;28;20481;-73
2023/07/18 11:36:28;;;;;;;;;;;34.50;85.50;;;;;;4976552;28;20388;-74
2023/07/18 11:38:57;;;;;;;6.38;3.80;;;;;;;;;;4975827;28;19914;-76
2023/07/18 11:41:40;;;;;;;6.03;3.72;;;33.60;95.00;;;;;;4975600;28;20106;-73
2023/07/18 11:44:08;;;;;;;4.60;3.58;;;34.10;95.70;;;;;;4975853;28;20038;-73
2023/07/18 11:46:37;;;;;;;5.53;3.78;;;34.50;89.00;;;;;;4975605;28;20027;-75
2023/07/18 11:49:03;;;;;;;7.80;3.90;;;34.50;86.50;;;;;;4975810;28;20577;-77
2023/07/18 11:51:31;;;;;;;4.72;3.25;;;34.50;85.70;;;;;;4975660;28;20086;-77
2023/07/18 11:53:57;;;;;;;9.55;3.80;;;34.50;86.70;;;;;;4975577;28;20031;-77
2023/07/18 11:56:23;;;;;;;5.43;3.50;;;34.30;83.70;;;;;;4975692;28;20029;-74
2023/07/18 11:58:48;;;;;;;10.50;3.70;;;34.00;86.80;;;;;;4975175;28;20031;-73
2023/07/18 12:01:14;;;;;;;5.18;3.38;;;34.50;86.40;;;;;;4975520;28;20081;-77
2023/07/18 12:03:40;;;;;;;6.25;3.50;;;34.60;85.80;;;;;;4975360;28;20030;-78
2023/07/18 12:06:06;;;;;;;7.85;3.55;;;34.50;87.90;;;;;;4975341;28;20476;-77
2023/07/18 12:08:31;;;;;;;7.07;3.53;;;34.70;84.50;;;;;;4975139;28;20055;-74
2023/07/18 12:10:57;;;;;;;6.05;3.60;;;34.80;85.10;;;;;;4975317;28;20050;-77
2023/07/18 12:13:23;;;;;;;6.97;4.00;;;35.00;87.10;;;;;;4975119;28;20032;-73
2023/07/18 12:15:49;;;;;;;5.45;3.50;;;35.00;88.60;;;;;;4975286;28;20031;-77
2023/07/18 12:18:15;;;;;;;5.88;3.00;;;35.20;86.80;;;;;;4975572;28;20030;-74
2023/07/18 12:20:40;;;;;;;5.20;3.45;;;35.20;86.60;;;;;;4975138;28;20142;-73
2023/07/18 12:23:06;;;;;;;4.68;3.70;;;35.20;84.20;;;;;;4975223;28;20038;-77
2023/07/18 12:25:32;;;;;;;4.65;3.78;;;35.20;83.30;;;;;;4974993;28;20102;-77
2023/07/18 12:28:00;;;;;;;5.57;3.88;;;34.80;85.30;;;;;;4975287;28;20033;-77
2023/07/18 12:30:27;;;;;;;5.05;3.33;;;34.90;85.20;;;;;;4974742;28;20048;-77
2023/07/18 12:32:54;;;;;;;6.78;3.30;;;34.90;85.50;;;;;;4975441;28;20071;-74
2023/07/18 12:35:20;;;;;;;6.10;4.10;;;35.10;86.20;;;;;;4974688;28;20437;-74
2023/07/18 12:37:49;;;;;;;8.70;3.50;;;35.00;87.50;;;;;;4973940;28;20033;-73
2023/07/18 12:40:17;;;;;;;5.90;4.20;;;34.90;86.00;;;;;;4974615;28;20496;-78
2023/07/18 12:42:43;;;;;;;17.27;5.45;;;34.90;84.50;;;;;;4974836;28;20114;-76
2023/07/18 12:45:10;;;;;;;6.95;3.50;;;35.00;86.20;;;;;;4974558;28;20441;-75
2023/07/18 12:47:36;;;;;;;5.68;4.32;;;34.50;85.50;;;;;;4974550;28;20015;-73
2023/07/18 12:50:04;;;;;;;5.43;4.00;;;34.70;87.90;;;;;;4974691;28;20077;-74